createdAt,value
2019-04-30T04:28:53.936Z,44.10
2019-04-30T04:31:22.350Z,43.03
2019-04-30T04:33:52.708Z,45.13
2019-04-30T04:36:21.639Z,44.40
2019-04-30T04:38:50.723Z,50.00
2019-04-30T04:53:40.790Z,39.37
2019-04-30T04:56:20.023Z,43.07
2019-04-30T05:11:05.366Z,46.30
2019-04-30T05:13:59.838Z,44.90
2019-04-30T05:16:38.819Z,43.57
2019-04-30T05:22:38.926Z,41.87
2019-04-30T05:25:08.946Z,40.83
2019-04-30T05:27:39.442Z,40.40
2019-04-30T05:50:36.471Z,35.27
2019-04-30T05:53:06.312Z,32.30
2019-04-30T05:55:35.200Z,35.00
2019-04-30T05:58:04.011Z,32.80
2019-04-30T06:00:32.824Z,33.70
2019-04-30T06:03:01.342Z,31.83
2019-04-30T06:05:30.131Z,35.57
2019-04-30T06:07:59.335Z,37.37
2019-04-30T07:01:15.671Z,33.57
2019-04-30T07:09:53.247Z,32.60
2019-04-30T07:12:28.565Z,31.37
2019-04-30T07:18:52.645Z,34.80
2019-04-30T07:22:01.520Z,32.67
2019-04-30T07:27:35.503Z,33.47
2019-04-30T07:30:05.230Z,39.20
2019-04-30T07:32:33.943Z,33.37
2019-04-30T07:38:11.522Z,34.40
2019-04-30T07:41:19.090Z,25.93
2019-04-30T07:43:49.452Z,29.70
2019-04-30T07:49:45.582Z,32.50
2019-04-30T08:05:16.042Z,34.97
2019-04-30T08:14:15.048Z,26.80
2019-04-30T08:20:30.737Z,25.37
2019-04-30T08:59:29.475Z,24.23
2019-04-30T09:02:00.012Z,21.50
2019-04-30T09:04:29.620Z,23.50
2019-04-30T09:06:59.919Z,20.13
2019-04-30T09:09:29.551Z,28.97
2019-04-30T09:11:59.174Z,27.30
2019-04-30T09:14:29.761Z,22.87
2019-04-30T09:16:59.569Z,22.83
2019-04-30T09:19:29.897Z,30.67
2019-04-30T09:21:59.121Z,23.23
2019-04-30T09:24:30.775Z,23.77
2019-04-30T09:26:59.137Z,25.20
2019-04-30T09:29:29.283Z,24.20
2019-04-30T09:31:59.379Z,28.07
2019-04-30T09:34:29.064Z,23.43
2019-04-30T09:36:58.938Z,25.57
2019-04-30T09:39:29.589Z,27.63
2019-04-30T09:54:19.419Z,23.30
2019-04-30T09:56:52.766Z,22.97
2019-04-30T09:59:29.077Z,25.83
2019-04-30T10:04:59.125Z,22.83
2019-04-30T10:07:31.783Z,23.63
2019-04-30T10:10:15.222Z,22.30
2019-04-30T10:16:06.189Z,24.43
2019-04-30T10:44:55.905Z,19.80
2019-04-30T13:18:19.480Z,22.97
2019-04-30T13:27:55.618Z,18.57
2019-04-30T15:00:29.402Z,15.20
2019-04-30T15:03:11.916Z,17.43
2019-04-30T15:05:48.438Z,16.30
2019-04-30T15:08:11.321Z,18.47
2019-04-30T15:10:40.324Z,13.60
2019-04-30T15:13:09.764Z,18.73
2019-04-30T15:15:39.218Z,18.90
2019-04-30T15:18:09.229Z,16.53
2019-04-30T15:20:39.760Z,17.07
2019-04-30T15:56:37.737Z,18.93
2019-04-30T15:59:06.746Z,9.37
2019-04-30T16:01:35.378Z,14.43
2019-04-30T16:04:04.655Z,10.27
2019-04-30T16:06:33.358Z,14.53
2019-04-30T16:09:12.439Z,9.47
2019-04-30T16:11:45.322Z,12.83
2019-04-30T16:14:29.423Z,11.87
2019-04-30T16:17:02.177Z,8.30
2019-04-30T16:19:30.900Z,9.37
2019-04-30T16:21:59.590Z,9.87
2019-04-30T16:24:28.709Z,11.57
2019-04-30T16:26:59.336Z,9.17
2019-04-30T16:29:28.047Z,9.43
2019-04-30T16:31:56.829Z,7.93
2019-04-30T16:34:25.282Z,9.07
2019-04-30T16:36:53.975Z,8.80
2019-04-30T16:48:43.560Z,6.33
2019-04-30T16:51:12.248Z,8.00
2019-04-30T17:53:34.401Z,5.77
2019-04-30T17:56:11.869Z,12.93
